createdAt,value
2022-09-07T00:00:55.529Z,1.88
2022-09-07T00:03:23.400Z,2.10
2022-09-07T00:05:52.077Z,1.60
2022-09-07T00:08:22.344Z,2.22
2022-09-07T00:10:59.827Z,1.88
2022-09-07T00:13:30.376Z,2.10
2022-09-07T00:15:58.953Z,2.03
2022-09-07T00:18:26.520Z,1.80
2022-09-07T00:21:06.261Z,1.85
2022-09-07T00:23:35.947Z,1.90
2022-09-07T00:26:06.100Z,2.17
2022-09-07T00:28:34.069Z,2.00
2022-09-07T00:31:01.876Z,2.05
2022-09-07T00:33:30.418Z,2.17
2022-09-07T00:35:58.698Z,2.20
2022-09-07T00:38:26.675Z,2.03
2022-09-07T00:40:54.201Z,2.33
2022-09-07T00:43:37.759Z,2.10
2022-09-07T00:46:07.870Z,2.42
2022-09-07T00:48:57.440Z,1.98
2022-09-07T00:51:33.796Z,2.58
2022-09-07T00:54:07.481Z,2.60
2022-09-07T00:56:38.546Z,2.40
2022-09-07T00:59:07.241Z,2.30
2022-09-07T01:01:35.273Z,2.45
2022-09-07T01:04:03.660Z,2.40
2022-09-07T01:06:34.654Z,2.50
2022-09-07T01:09:10.185Z,2.47
2022-09-07T01:11:38.989Z,2.20
2022-09-07T01:14:11.642Z,2.80
2022-09-07T01:16:42.148Z,2.10
2022-09-07T01:19:39.964Z,2.47
2022-09-07T01:22:37.262Z,2.58
2022-09-07T01:25:27.514Z,2.53
2022-09-07T01:28:20.825Z,2.70
2022-09-07T01:30:56.063Z,2.60
2022-09-07T01:33:41.920Z,2.78
2022-09-07T01:36:34.936Z,2.97
2022-09-07T01:39:05.502Z,2.70
2022-09-07T01:41:50.754Z,2.72
2022-09-07T01:44:24.959Z,2.78
2022-09-07T01:47:01.280Z,2.70
2022-09-07T01:49:44.963Z,2.28
2022-09-07T01:52:34.257Z,2.30
2022-09-07T01:55:05.321Z,2.55
2022-09-07T01:57:43.737Z,2.83
2022-09-07T02:00:20.964Z,2.63
2022-09-07T02:02:48.421Z,2.55
2022-09-07T02:05:27.585Z,2.47
2022-09-07T02:08:04.778Z,3.08
2022-09-07T02:10:41.686Z,2.90
2022-09-07T02:13:20.865Z,2.78
2022-09-07T02:16:00.299Z,2.72
2022-09-07T02:18:37.964Z,3.15
2022-09-07T02:21:09.039Z,2.90
2022-09-07T02:23:48.998Z,2.70
2022-09-07T02:26:22.286Z,2.60
2022-09-07T02:28:49.966Z,2.35
2022-09-07T02:31:17.513Z,2.80
2022-09-07T02:33:45.148Z,2.70
2022-09-07T02:36:15.926Z,2.97
2022-09-07T02:38:43.988Z,2.88
2022-09-07T02:41:46.858Z,2.90
2022-09-07T02:44:19.433Z,2.80
2022-09-07T02:47:12.478Z,2.97
2022-09-07T02:50:04.417Z,2.60
2022-09-07T02:52:40.745Z,3.08
2022-09-07T02:55:11.138Z,2.83
2022-09-07T02:58:05.232Z,2.78
2022-09-07T03:00:40.486Z,3.00
2022-09-07T03:03:31.210Z,2.95
2022-09-07T03:06:07.801Z,2.50
2022-09-07T03:08:47.034Z,2.60
2022-09-07T03:11:15.312Z,2.70
2022-09-07T03:13:42.962Z,2.80
2022-09-07T03:16:17.186Z,2.80
2022-09-07T03:18:44.826Z,3.00
2022-09-07T03:21:12.386Z,2.78
2022-09-07T03:23:40.850Z,2.90
2022-09-07T03:26:23.035Z,2.97
2022-09-07T03:28:50.494Z,3.15
2022-09-07T03:31:18.204Z,2.85
2022-09-07T03:33:46.365Z,3.00
2022-09-07T03:36:13.729Z,3.03
2022-09-07T03:38:41.477Z,3.35
2022-09-07T03:41:08.823Z,3.00
2022-09-07T03:43:36.362Z,2.90
2022-09-07T03:46:06.076Z,3.00
2022-09-07T03:48:35.041Z,3.03
2022-09-07T03:51:08.293Z,3.28
2022-09-07T03:53:38.864Z,3.00
2022-09-07T03:56:11.016Z,3.70
2022-09-07T03:58:39.408Z,3.47
2022-09-07T04:01:12.216Z,3.15
2022-09-07T04:03:40.006Z,3.40
2022-09-07T04:06:07.537Z,2.88
2022-09-07T04:08:36.610Z,3.30
2022-09-07T04:11:06.176Z,3.63
2022-09-07T04:13:36.184Z,3.30
2022-09-07T04:16:21.953Z,3.25
2022-09-07T04:18:50.452Z,3.40
2022-09-07T04:21:18.363Z,3.22
2022-09-07T04:23:45.859Z,3.28
2022-09-07T04:26:25.557Z,3.38
2022-09-07T04:28:54.422Z,2.95
2022-09-07T04:31:23.531Z,3.28
2022-09-07T04:33:52.004Z,3.40
2022-09-07T04:36:20.500Z,3.13
2022-09-07T04:38:54.775Z,3.55
2022-09-07T04:41:23.034Z,3.50
2022-09-07T04:43:59.957Z,3.25
2022-09-07T04:46:33.605Z,3.50
2022-09-07T04:49:04.303Z,3.22
2022-09-07T04:51:32.634Z,3.25
2022-09-07T04:54:02.789Z,3.67
2022-09-07T04:56:31.805Z,3.47
2022-09-07T04:59:01.105Z,3.53
2022-09-07T05:01:29.157Z,3.22
2022-09-07T05:03:56.892Z,3.60
2022-09-07T05:06:24.351Z,3.53
2022-09-07T05:08:53.771Z,3.80
2022-09-07T05:11:28.397Z,3.83
2022-09-07T05:14:01.399Z,3.83
2022-09-07T05:16:30.182Z,3.92
2022-09-07T05:18:59.966Z,3.25
2022-09-07T05:21:29.871Z,3.67
2022-09-07T05:23:59.888Z,3.33
2022-09-07T05:26:30.298Z,3.88
2022-09-07T05:31:50.011Z,4.60
2022-09-07T05:34:34.747Z,4.90
2022-09-07T05:37:02.669Z,4.20
2022-09-07T05:39:31.201Z,3.95
2022-09-07T05:41:58.645Z,3.90
2022-09-07T05:47:09.684Z,3.85
2022-09-07T05:49:37.562Z,4.05
2022-09-07T05:52:05.004Z,3.75
2022-09-07T05:54:32.615Z,4.40
2022-09-07T05:57:00.174Z,4.57
2022-09-07T05:59:27.542Z,4.30
2022-09-07T06:01:55.145Z,4.03
2022-09-07T06:04:22.835Z,4.05
2022-09-07T06:07:17.716Z,4.15
2022-09-07T06:12:26.431Z,4.70
2022-09-07T06:14:54.018Z,4.93
2022-09-07T06:17:21.462Z,4.95
2022-09-07T06:19:48.895Z,4.93
2022-09-07T06:22:16.531Z,5.00
2022-09-07T06:24:43.968Z,4.15
2022-09-07T06:27:11.810Z,5.05
2022-09-07T06:29:40.107Z,5.50
2022-09-07T06:34:55.209Z,5.22
2022-09-07T06:37:22.574Z,4.65
2022-09-07T06:39:50.648Z,4.88
2022-09-07T06:42:18.316Z,4.90
2022-09-07T06:44:45.789Z,4.70
2022-09-07T06:47:14.246Z,5.03
2022-09-07T06:49:42.349Z,4.57
2022-09-07T06:52:09.778Z,4.45
2022-09-07T06:57:25.009Z,5.70
2022-09-07T06:59:52.449Z,5.28
2022-09-07T07:02:19.847Z,5.13
2022-09-07T07:04:47.434Z,5.10
2022-09-07T07:07:16.023Z,6.00
2022-09-07T07:09:44.840Z,5.70
2022-09-07T07:12:12.424Z,5.35
2022-09-07T07:14:44.724Z,5.03
2022-09-07T07:17:13.329Z,5.35
2022-09-07T07:19:41.031Z,5.32
2022-09-07T07:22:23.926Z,5.55
2022-09-07T07:24:56.055Z,5.20
2022-09-07T07:27:23.598Z,5.93
2022-09-07T07:29:52.552Z,5.45
2022-09-07T07:32:20.216Z,5.25
2022-09-07T07:34:47.602Z,5.10
2022-09-07T07:37:16.022Z,5.30
2022-09-07T07:42:32.198Z,5.57
2022-09-07T07:47:51.424Z,5.50
2022-09-07T07:50:34.892Z,5.28
2022-09-07T07:55:50.686Z,5.15
2022-09-07T07:58:18.349Z,4.53
2022-09-07T08:00:55.395Z,5.00
2022-09-07T08:03:25.318Z,5.22
2022-09-07T08:05:53.875Z,5.05
2022-09-07T08:08:23.067Z,5.32
2022-09-07T08:10:50.742Z,4.93
2022-09-07T08:13:19.200Z,4.75
2022-09-07T08:15:47.013Z,4.95
2022-09-07T08:18:16.581Z,4.40
2022-09-07T08:20:43.954Z,4.47
2022-09-07T08:23:11.505Z,4.28
2022-09-07T08:25:39.166Z,4.57
2022-09-07T08:28:06.802Z,4.25
2022-09-07T08:30:38.546Z,4.15
2022-09-07T08:33:06.218Z,3.90
2022-09-07T08:35:33.478Z,4.03
2022-09-07T08:38:00.831Z,4.35
2022-09-07T08:40:31.110Z,3.78
2022-09-07T08:43:04.148Z,4.03
2022-09-07T08:45:54.416Z,4.20
2022-09-07T08:48:30.960Z,4.63
2022-09-07T08:51:09.466Z,4.10
2022-09-07T08:53:45.672Z,3.83
2022-09-07T08:56:21.857Z,3.95
2022-09-07T08:58:53.149Z,4.13
2022-09-07T09:01:31.368Z,4.05
2022-09-07T09:07:24.763Z,4.10
2022-09-07T09:10:09.030Z,3.45
2022-09-07T09:13:06.522Z,3.65
2022-09-07T09:16:05.894Z,3.97
2022-09-07T09:18:46.865Z,3.70
2022-09-07T09:21:17.439Z,3.40
2022-09-07T09:23:48.785Z,3.50
2022-09-07T09:26:20.498Z,3.63
2022-09-07T09:28:48.026Z,3.90
2022-09-07T09:31:31.795Z,3.75
2022-09-07T09:34:05.085Z,3.45
2022-09-07T09:36:44.714Z,3.67
2022-09-07T09:39:27.383Z,3.50
2022-09-07T09:41:58.314Z,3.50
2022-09-07T09:44:33.664Z,3.35
2022-09-07T09:49:51.398Z,3.35
2022-09-07T09:52:30.503Z,3.40
2022-09-07T09:55:23.577Z,3.33
2022-09-07T10:04:01.124Z,3.60
2022-09-07T10:06:32.213Z,3.28
2022-09-07T10:09:02.287Z,3.67
2022-09-07T10:14:44.251Z,3.33
2022-09-07T10:17:30.101Z,2.80
2022-09-07T10:20:01.603Z,2.88
2022-09-07T10:22:33.364Z,3.20
2022-09-07T10:25:02.211Z,3.40
2022-09-07T10:27:38.543Z,3.60
2022-09-07T10:30:16.661Z,3.28
2022-09-07T10:33:04.398Z,3.33
2022-09-07T10:35:37.593Z,2.97
2022-09-07T10:38:25.048Z,3.30
2022-09-07T10:41:04.053Z,2.70
2022-09-07T10:43:45.142Z,2.88
2022-09-07T10:46:57.282Z,2.75
2022-09-07T10:49:28.214Z,2.60
2022-09-07T10:52:21.275Z,2.92
2022-09-07T10:54:55.263Z,2.92
2022-09-07T10:57:54.482Z,3.00
2022-09-07T11:00:23.340Z,3.20
2022-09-07T11:05:57.334Z,2.90
2022-09-07T11:09:15.164Z,3.13
2022-09-07T11:14:21.740Z,3.25
2022-09-07T11:16:55.622Z,2.50
2022-09-07T11:19:38.185Z,3.00
2022-09-07T11:22:11.276Z,3.15
2022-09-07T11:27:58.588Z,2.90
2022-09-07T11:30:42.606Z,2.90
2022-09-07T11:33:27.375Z,3.00
2022-09-07T11:36:15.183Z,3.17
2022-09-07T11:38:51.278Z,3.10
2022-09-07T11:41:22.061Z,3.20
2022-09-07T11:44:16.954Z,3.33
2022-09-07T11:46:50.211Z,3.10
2022-09-07T11:49:21.526Z,3.20
2022-09-07T11:51:57.333Z,3.00
2022-09-07T11:54:41.818Z,3.03
2022-09-07T11:57:38.628Z,2.90
2022-09-07T12:00:21.392Z,3.20
2022-09-07T12:03:23.592Z,2.67
2022-09-07T12:06:27.188Z,3.00
2022-09-07T12:09:19.244Z,2.85
2022-09-07T12:12:06.618Z,3.35
2022-09-07T12:14:58.178Z,3.40
2022-09-07T12:17:40.596Z,3.22
2022-09-07T12:20:24.184Z,2.88
2022-09-07T12:23:17.530Z,3.20
2022-09-07T12:25:47.349Z,3.38
2022-09-07T12:28:23.523Z,2.90
2022-09-07T12:31:11.888Z,3.00
2022-09-07T12:33:40.477Z,2.80
2022-09-07T12:36:26.300Z,2.83
2022-09-07T12:39:19.430Z,3.10
2022-09-07T12:42:31.455Z,3.25
2022-09-07T12:44:38.121Z,3.20
2022-09-07T12:47:12.312Z,3.00
2022-09-07T12:49:45.811Z,2.80
2022-09-07T12:52:49.693Z,3.22
2022-09-07T12:56:15.602Z,2.85
2022-09-07T12:58:38.411Z,2.95
2022-09-07T13:01:36.793Z,3.20
2022-09-07T13:04:29.234Z,3.08
2022-09-07T13:07:30.682Z,3.00
2022-09-07T13:10:04.378Z,3.00
2022-09-07T13:15:41.208Z,2.90
2022-09-07T13:18:29.086Z,3.60
2022-09-07T13:21:08.660Z,3.20
2022-09-07T13:23:42.437Z,2.97
2022-09-07T13:26:13.228Z,3.28
2022-09-07T13:28:56.616Z,3.08
2022-09-07T13:31:33.418Z,2.97
2022-09-07T13:34:00.871Z,3.05
2022-09-07T13:36:47.677Z,3.05
2022-09-07T13:39:19.885Z,2.60
2022-09-07T13:41:54.392Z,3.17
2022-09-07T13:44:33.610Z,3.30
2022-09-07T13:47:10.329Z,3.15
2022-09-07T13:49:56.047Z,3.00
2022-09-07T13:52:40.724Z,3.08
2022-09-07T13:55:45.584Z,3.03
2022-09-07T13:58:50.531Z,3.07
2022-09-07T14:01:45.017Z,3.53
2022-09-07T14:04:23.318Z,3.00
2022-09-07T14:06:50.958Z,2.90
2022-09-07T14:09:21.915Z,3.17
2022-09-07T14:11:52.418Z,3.28
2022-09-07T14:14:21.221Z,3.15
2022-09-07T14:17:01.863Z,3.10
2022-09-07T14:19:42.439Z,3.10
2022-09-07T14:22:16.183Z,3.15
2022-09-07T14:24:49.502Z,3.37
2022-09-07T14:27:33.073Z,3.65
2022-09-07T14:30:19.067Z,3.25
2022-09-07T14:32:59.889Z,2.95
2022-09-07T14:35:33.489Z,3.50
2022-09-07T14:39:04.105Z,3.53
2022-09-07T14:41:11.041Z,3.17
2022-09-07T14:43:50.927Z,3.10
2022-09-07T14:46:28.126Z,3.22
2022-09-07T14:49:01.639Z,3.28
2022-09-07T14:51:36.592Z,3.28
2022-09-07T14:54:07.175Z,3.35
2022-09-07T14:56:37.646Z,3.15
2022-09-07T14:59:30.940Z,3.33
2022-09-07T15:02:28.485Z,2.80
2022-09-07T15:05:14.452Z,2.92
2022-09-07T15:07:54.569Z,2.75
2022-09-07T15:10:23.146Z,3.22
2022-09-07T15:12:54.507Z,3.72
2022-09-07T15:15:29.042Z,2.80
2022-09-07T15:18:04.600Z,3.22
2022-09-07T15:20:41.478Z,3.10
2022-09-07T15:23:09.586Z,2.90
2022-09-07T15:25:39.264Z,3.40
2022-09-07T15:29:08.152Z,3.47
2022-09-07T15:33:52.733Z,3.13
2022-09-07T15:36:20.497Z,2.97
2022-09-07T15:39:03.608Z,3.20
2022-09-07T15:41:31.551Z,3.00
2022-09-07T15:43:59.404Z,3.10
2022-09-07T15:46:27.156Z,2.90
2022-09-07T15:48:56.072Z,2.95
2022-09-07T15:54:14.516Z,3.10
2022-09-07T15:56:44.422Z,3.10
2022-09-07T15:59:31.199Z,3.03
2022-09-07T16:01:59.026Z,2.78
2022-09-07T16:04:26.954Z,3.17
2022-09-07T16:06:55.735Z,2.90
2022-09-07T16:09:23.103Z,3.30
2022-09-07T16:11:50.901Z,3.08
2022-09-07T16:14:19.244Z,3.00
2022-09-07T16:19:36.008Z,3.55
2022-09-07T16:22:03.893Z,3.28
2022-09-07T16:24:31.379Z,3.60
2022-09-07T16:26:58.996Z,3.42
2022-09-07T16:29:26.395Z,3.40
2022-09-07T16:34:41.305Z,3.30
2022-09-07T16:37:08.619Z,3.40
2022-09-07T16:39:36.041Z,3.45
2022-09-07T16:42:03.827Z,3.47
2022-09-07T16:44:31.325Z,3.28
2022-09-07T16:46:59.788Z,3.80
2022-09-07T16:49:28.751Z,3.90
2022-09-07T16:51:56.555Z,3.90
2022-09-07T16:54:24.084Z,4.22
2022-09-07T16:56:52.967Z,4.20
2022-09-07T16:59:26.125Z,4.15
2022-09-07T17:01:53.994Z,4.45
2022-09-07T17:04:21.659Z,4.38
2022-09-07T17:06:49.331Z,4.05
2022-09-07T17:09:16.863Z,4.03
2022-09-07T17:11:44.515Z,3.90
2022-09-07T17:14:13.401Z,3.60
2022-09-07T17:16:41.586Z,3.85
2022-09-07T17:22:00.783Z,3.88
2022-09-07T17:24:28.390Z,4.00
2022-09-07T17:26:55.675Z,4.00
2022-09-07T17:29:23.219Z,4.07
2022-09-07T17:34:38.661Z,3.60
2022-09-07T17:37:06.170Z,3.70
2022-09-07T17:39:33.811Z,4.47
2022-09-07T17:42:01.573Z,3.53
2022-09-07T17:44:33.262Z,3.92
2022-09-07T17:47:03.668Z,3.63
2022-09-07T17:49:31.081Z,3.83
2022-09-07T17:51:59.945Z,3.60
2022-09-07T17:54:28.150Z,3.50
2022-09-07T17:56:55.631Z,3.42
2022-09-07T18:02:13.775Z,3.60
2022-09-07T18:04:41.585Z,4.10
2022-09-07T18:07:09.003Z,3.92
2022-09-07T18:09:36.754Z,3.95
2022-09-07T18:12:04.563Z,4.18
2022-09-07T18:14:32.181Z,4.05
2022-09-07T18:17:00.287Z,4.55
2022-09-07T18:19:28.415Z,4.05
2022-09-07T18:21:56.258Z,4.47
2022-09-07T18:24:24.699Z,4.45
2022-09-07T18:26:53.627Z,4.53
2022-09-07T18:29:29.351Z,4.80
2022-09-07T18:31:59.474Z,4.35
2022-09-07T18:34:28.632Z,5.35
2022-09-07T18:36:58.208Z,4.95
2022-09-07T18:39:28.205Z,4.68
2022-09-07T18:41:55.803Z,4.63
2022-09-07T18:47:22.278Z,4.45
2022-09-07T18:49:55.256Z,4.95
2022-09-07T18:52:53.550Z,4.75
2022-09-07T18:55:10.851Z,5.28
2022-09-07T18:57:39.513Z,5.00
2022-09-07T19:00:09.038Z,4.93
2022-09-07T19:02:38.257Z,4.90
2022-09-07T19:07:53.497Z,5.03
2022-09-07T19:10:21.383Z,4.93
2022-09-07T19:12:48.794Z,5.05
2022-09-07T19:15:16.874Z,4.63
2022-09-07T19:17:44.697Z,4.80
2022-09-07T19:20:12.503Z,5.20
2022-09-07T19:22:39.877Z,4.90
2022-09-07T19:25:07.733Z,4.90
2022-09-07T19:27:35.334Z,4.85
2022-09-07T19:30:03.808Z,4.85
2022-09-07T19:32:34.139Z,4.60
2022-09-07T19:35:02.980Z,4.55
2022-09-07T19:37:32.859Z,4.90
2022-09-07T19:40:01.297Z,5.07
2022-09-07T19:42:28.896Z,4.95
2022-09-07T19:44:56.631Z,5.35
2022-09-07T19:47:24.764Z,4.72
2022-09-07T19:49:52.332Z,5.22
2022-09-07T19:52:20.808Z,5.30
2022-09-07T19:54:48.402Z,5.35
2022-09-07T19:57:15.793Z,4.70
2022-09-07T19:59:45.573Z,5.22
2022-09-07T20:02:13.438Z,4.93
2022-09-07T20:04:40.826Z,4.90
2022-09-07T20:07:08.098Z,5.00
2022-09-07T20:09:36.802Z,5.38
2022-09-07T20:12:06.657Z,5.45
2022-09-07T20:14:34.057Z,5.10
2022-09-07T20:17:02.370Z,5.78
2022-09-07T20:19:30.194Z,5.40
2022-09-07T20:21:57.617Z,5.10
2022-09-07T20:24:25.242Z,5.22
2022-09-07T20:26:52.702Z,5.50
2022-09-07T20:29:28.475Z,5.43
2022-09-07T20:32:00.071Z,4.78
2022-09-07T20:34:28.978Z,5.65
2022-09-07T20:36:56.841Z,5.53
2022-09-07T20:39:24.796Z,5.43
2022-09-07T20:41:52.589Z,5.45
2022-09-07T20:44:19.961Z,6.20
2022-09-07T20:46:47.603Z,5.95
2022-09-07T20:49:15.794Z,6.15
2022-09-07T20:51:43.205Z,6.50
2022-09-07T20:54:10.840Z,6.43
2022-09-07T20:56:38.133Z,6.20
2022-09-07T20:59:05.577Z,5.65
2022-09-07T21:01:34.928Z,6.00
2022-09-07T21:04:03.983Z,6.82
2022-09-07T21:06:32.648Z,7.00
2022-09-07T21:09:00.628Z,6.72
2022-09-07T21:11:33.545Z,6.60
2022-09-07T21:14:06.009Z,7.00
2022-09-07T21:16:35.803Z,7.15
2022-09-07T21:19:06.807Z,7.07
2022-09-07T21:21:39.420Z,7.43
2022-09-07T21:24:20.740Z,6.60
2022-09-07T21:26:50.148Z,6.80
2022-09-07T21:29:20.745Z,6.80
2022-09-07T21:31:48.593Z,7.30
2022-09-07T21:34:16.758Z,6.88
2022-09-07T21:36:44.687Z,7.20
2022-09-07T21:39:14.695Z,6.75
2022-09-07T21:41:43.556Z,8.15
2022-09-07T21:44:13.624Z,7.22
2022-09-07T21:46:43.252Z,7.47
2022-09-07T21:49:11.145Z,7.55
2022-09-07T21:51:38.892Z,7.50
2022-09-07T21:54:06.746Z,7.72
2022-09-07T21:56:34.706Z,7.28
2022-09-07T21:59:02.801Z,8.05
2022-09-07T22:01:31.579Z,7.78
2022-09-07T22:04:01.716Z,7.80
2022-09-07T22:06:32.201Z,7.97
2022-09-07T22:09:00.201Z,7.50
2022-09-07T22:11:29.213Z,7.35
2022-09-07T22:13:58.671Z,7.40
2022-09-07T22:16:26.375Z,7.60
2022-09-07T22:18:54.124Z,7.88
2022-09-07T22:21:26.688Z,8.45
2022-09-07T22:24:02.964Z,7.65
2022-09-07T22:26:35.191Z,7.60
2022-09-07T22:29:02.541Z,7.65
2022-09-07T22:31:32.407Z,7.43
2022-09-07T22:34:01.701Z,7.32
2022-09-07T22:36:35.778Z,7.38
2022-09-07T22:39:08.748Z,7.53
2022-09-07T22:41:38.467Z,8.65
2022-09-07T22:44:08.201Z,7.57
2022-09-07T22:46:38.199Z,7.70
2022-09-07T22:49:06.474Z,7.50
2022-09-07T22:51:34.341Z,7.38
2022-09-07T22:54:01.722Z,7.75
2022-09-07T22:56:31.412Z,7.05
2022-09-07T22:59:01.864Z,8.20
2022-09-07T23:01:30.269Z,7.60
2022-09-07T23:03:58.503Z,8.27
2022-09-07T23:06:32.509Z,7.30
2022-09-07T23:09:02.381Z,7.88
2022-09-07T23:11:30.391Z,7.35
2022-09-07T23:13:59.561Z,7.65
2022-09-07T23:16:28.259Z,7.43
2022-09-07T23:18:58.150Z,7.70
2022-09-07T23:21:26.380Z,7.70
2022-09-07T23:23:56.836Z,7.80
2022-09-07T23:26:26.817Z,7.80
2022-09-07T23:28:56.143Z,8.10
2022-09-07T23:31:24.644Z,8.50
2022-09-07T23:33:52.386Z,7.53
2022-09-07T23:36:20.196Z,8.00
2022-09-07T23:38:47.785Z,8.20
2022-09-07T23:41:17.944Z,7.57
2022-09-07T23:43:45.633Z,7.38
2022-09-07T23:46:14.164Z,8.13
2022-09-07T23:48:46.275Z,7.30
2022-09-07T23:51:16.212Z,8.40
2022-09-07T23:53:45.849Z,7.68
2022-09-07T23:56:13.275Z,7.47
2022-09-07T23:58:40.581Z,8.55
